Time;durP1;ratioP1;P1;durP2;ratioP2;P2;SDS_P1;SDS_P2;PMS_P1;PMS_P2;Temp;Humidity;BMP_temperature;BMP_pressure;BME280_temperature;BME280_humidity;BME280_pressure;Samples;Min_cycle;Max_cycle;Signal;HPM_P1;HPM_P2
2023/05/06 00:05:27;;;;;;;6.90;3.90;;;;;;;10.93;56.40;100305.63;30859875;28;97422;-65
2023/05/06 00:20:27;;;;;;;9.55;4.05;;;;;;;10.86;56.33;100293.97;30865552;28;96751;-64
2023/05/06 00:35:28;;;;;;;10.68;4.78;;;;;;;10.69;57.06;100278.03;30864194;28;96964;-64
2023/05/06 00:50:31;;;;;;;8.60;3.72;;;;;;;10.64;57.20;100270.50;30860658;28;96967;-65
2023/05/06 01:05:38;;;;;;;5.83;3.80;;;;;;;10.69;58.08;100262.03;30860881;28;96702;-65
2023/05/06 01:20:40;;;;;;;9.23;4.30;;;;;;;10.66;57.69;100281.00;30859508;28;96700;-65
2023/05/06 01:36:08;;;;;;;7.67;4.10;;;;;;;10.59;57.94;100283.53;30858651;28;97326;-65
2023/05/06 01:51:08;;;;;;;7.60;4.37;;;;;;;10.55;58.45;100262.72;30856764;28;97601;-65
2023/05/06 02:06:08;;;;;;;7.65;4.32;;;;;;;10.45;58.69;100246.91;30855239;28;96775;-66
2023/05/06 02:21:09;;;;;;;7.10;4.20;;;;;;;10.38;59.33;100252.06;30854709;28;96728;-66
2023/05/06 02:36:09;;;;;;;7.20;4.10;;;;;;;10.40;59.62;100239.44;30854277;28;97363;-64
2023/05/06 02:51:09;;;;;;;7.88;4.03;;;;;;;10.41;59.71;100238.41;30852449;28;96796;-65
2023/05/06 03:06:10;;;;;;;7.78;3.92;;;;;;;10.44;59.38;100264.72;30850906;28;112693;-64
2023/05/06 03:21:11;;;;;;;6.43;3.80;;;;;;;10.49;59.67;100282.84;30869303;28;97504;-64
2023/05/06 03:36:12;;;;;;;6.60;3.78;;;;;;;10.57;59.39;100308.66;30868310;28;98602;-62
2023/05/06 03:51:13;;;;;;;6.70;3.60;;;;;;;10.65;59.46;100290.84;30867431;28;96653;-62
2023/05/06 04:06:13;;;;;;;7.13;3.97;;;;;;;10.72;59.33;100287.50;30866781;28;96753;-64
2023/05/06 04:21:14;;;;;;;7.97;4.05;;;;;;;10.64;60.31;100262.53;30864159;28;96635;-64
2023/05/06 04:36:14;;;;;;;9.05;4.13;;;;;;;10.67;60.24;100221.38;30863072;28;96680;-64
2023/05/06 04:51:15;;;;;;;10.48;3.90;;;;;;;10.53;60.42;100148.34;30859236;28;97651;-64
2023/05/06 05:06:15;;;;;;;7.45;4.00;;;;;;;10.39;61.14;100226.25;30858670;28;96634;-65
2023/05/06 05:21:15;;;;;;;7.20;3.88;;;;;;;10.54;61.46;100247.72;30857892;28;96635;-64
2023/05/06 05:36:16;;;;;;;9.20;4.88;;;;;;;10.57;61.48;100226.09;30857815;28;109876;-64
2023/05/06 05:51:16;;;;;;;7.07;3.70;;;;;;;10.54;61.55;100245.06;30854775;28;96720;-63
2023/05/06 06:06:16;;;;;;;6.47;4.03;;;;;;;10.49;61.72;100242.91;30854396;28;97501;-63
2023/05/06 06:21:16;;;;;;;6.70;4.40;;;;;;;10.49;62.41;100235.72;30853731;28;96866;-63
2023/05/06 06:36:17;;;;;;;8.43;5.30;;;;;;;10.45;63.59;100250.38;30850355;28;112758;-62
2023/05/06 06:51:17;;;;;;;7.63;4.43;;;;;;;10.52;63.42;100239.06;30862182;28;96806;-62
2023/05/06 07:06:17;;;;;;;11.48;4.45;;;;;;;10.44;64.38;100240.75;30868616;28;104010;-63
2023/05/06 07:21:18;;;;;;;11.10;4.97;;;;;;;10.25;65.35;100233.06;30868330;28;106498;-63
2023/05/06 07:36:18;;;;;;;6.78;4.57;;;;;;;10.12;66.42;100209.63;30867814;28;97415;-62
2023/05/06 07:51:19;;;;;;;12.02;5.20;;;;;;;10.14;67.04;100196.97;30866739;28;103646;-64
2023/05/06 08:06:19;;;;;;;8.50;5.65;;;;;;;10.29;66.93;100170.50;30864004;28;96709;-63
2023/05/06 08:21:20;;;;;;;7.95;5.55;;;;;;;10.14;67.77;100183.66;30863279;28;96711;-65
2023/05/06 08:36:21;;;;;;;9.73;6.13;;;;;;;9.71;68.42;100257.50;30860677;28;96784;-62
2023/05/06 08:51:28;;;;;;;13.63;6.43;;;;;;;9.96;69.31;100245.88;30858367;28;96891;-63
2023/05/06 09:06:28;;;;;;;10.00;6.07;;;;;;;10.39;69.48;100235.09;30857522;28;96689;-63
2023/05/06 09:21:51;;;;;;;8.93;5.57;;;;;;;11.01;69.43;100212.31;30856726;28;97617;-62
2023/05/06 09:36:52;;;;;;;8.30;5.30;;;;;;;11.47;69.17;100225.75;30855904;28;96751;-62
2023/05/06 09:51:52;;;;;;;8.10;5.10;;;;;;;11.47;68.98;100225.75;30855854;28;97072;-65
2023/05/06 10:06:55;;;;;;;8.98;5.57;;;;;;;11.24;68.83;100222.22;30853946;28;96792;-63
2023/05/06 10:22:06;;;;;;;7.30;5.73;;;;;;;11.12;69.14;100219.91;30851943;28;97672;-65
2023/05/06 10:37:09;;;;;;;8.47;5.53;;;;;;;11.23;69.29;100207.22;30850382;28;96717;-65
2023/05/06 10:52:11;;;;;;;;;;;;;;;11.45;69.82;100216.25;30849264;28;96839;-64
2023/05/06 11:07:14;;;;;;;7.70;5.80;;;;;;;11.84;69.19;100212.69;30850734;28;96739;-64
2023/05/06 11:22:38;;;;;;;8.63;5.83;;;;;;;12.08;68.46;100219.69;30848733;28;97408;-64
2023/05/06 11:37:41;;;;;;;8.20;5.83;;;;;;;12.35;68.63;100222.81;30858611;28;97093;-65
2023/05/06 11:52:41;;;;;;;11.60;6.33;;;;;;;12.77;68.72;100229.41;30860510;28;97786;-65
2023/05/06 12:07:43;;;;;;;7.18;5.57;;;;;;;13.21;67.38;100241.94;30864198;28;96704;-64
2023/05/06 12:22:44;;;;;;;9.65;6.03;;;;;;;13.10;66.75;100250.44;30862947;28;97385;-65
2023/05/06 12:37:44;;;;;;;9.40;6.07;;;;;;;12.82;67.02;100252.91;30860643;28;97278;-65
2023/05/06 12:52:44;;;;;;;9.20;6.00;;;;;;;12.86;67.77;100252.38;30858941;28;97665;-64
2023/05/06 13:07:45;;;;;;;9.70;6.85;;;;;;;13.12;67.48;100258.25;30858931;28;97123;-65
2023/05/06 13:22:45;;;;;;;8.40;5.70;;;;;;;13.42;67.40;100248.38;30857814;28;96851;-65
2023/05/06 13:37:45;;;;;;;8.55;6.03;;;;;;;13.39;66.90;100238.06;30855697;28;98079;-64
2023/05/06 13:52:46;;;;;;;9.13;6.97;;;;;;;13.28;67.60;100241.19;30852250;28;97484;-64
2023/05/06 14:07:46;;;;;;;10.43;6.80;;;;;;;13.17;67.99;100251.34;30844436;28;111888;-64
2023/05/06 14:22:46;;;;;;;13.50;7.97;;;;;;;12.99;68.51;100245.56;30873079;28;97263;-64
2023/05/06 14:37:47;;;;;;;8.68;6.10;;;;;;;12.82;68.93;100260.94;30970890;28;99391;-64
2023/05/06 14:52:48;;;;;;;11.18;7.13;;;;;;;13.07;68.81;100255.31;30972063;28;96609;-64
2023/05/06 15:07:48;;;;;;;11.23;8.85;;;;;;;12.96;69.11;100280.69;30978050;28;96823;-65
2023/05/06 15:22:49;;;;;;;17.40;9.50;;;;;;;12.82;69.56;100282.31;30992292;28;98336;-64
2023/05/06 15:37:54;;;;;;;14.05;8.75;;;;;;;12.53;69.60;100292.78;30990057;28;97459;-66
2023/05/06 15:52:54;;;;;;;16.13;8.47;;;;;;;12.28;69.95;100302.00;30988961;28;97662;-67
2023/05/06 16:07:55;;;;;;;10.98;8.18;;;;;;;11.98;70.35;100310.72;30988572;28;96840;-66
2023/05/06 16:22:55;;;;;;;12.98;8.35;;;;;;;11.82;70.46;100319.63;30985241;28;97195;-65
2023/05/06 16:37:55;;;;;;;11.38;8.57;;;;;;;11.60;70.32;100317.72;30982872;28;103408;-64
2023/05/06 16:52:56;;;;;;;12.63;8.15;;;;;;;11.53;71.27;100312.25;30878410;28;97328;-65
2023/05/06 17:07:57;;;;;;;12.18;8.30;;;;;;;11.42;71.56;100332.13;30848797;28;96816;-67
2023/05/06 17:22:57;;;;;;;9.18;7.68;;;;;;;11.31;71.58;100340.53;30848371;28;98809;-68
2023/05/06 17:37:57;;;;;;;8.30;6.07;;;;;;;10.89;71.47;100354.94;30846286;28;112662;-65
2023/05/06 17:52:58;;;;;;;8.00;5.20;;;;;;;10.57;72.11;100364.63;30843961;28;97108;-67
2023/05/06 18:07:58;;;;;;;7.53;5.00;;;;;;;10.28;73.15;100369.38;30843462;28;96750;-68
2023/05/06 18:22:58;;;;;;;8.60;5.07;;;;;;;9.99;73.83;100378.63;30842451;28;96713;-68
2023/05/06 18:37:59;;;;;;;8.15;4.90;;;;;;;9.83;73.94;100416.66;30840669;28;97657;-68
2023/05/06 18:52:59;;;;;;;9.20;5.93;;;;;;;9.71;74.57;100422.41;30859468;28;96832;-67
2023/05/06 19:07:59;;;;;;;8.20;5.80;;;;;;;9.70;74.39;100434.88;30857543;28;97450;-66
2023/05/06 19:23:02;;;;;;;10.20;6.30;;;;;;;9.60;74.62;100450.13;30861462;28;97370;-66
2023/05/06 19:38:03;;;;;;;6.63;5.27;;;;;;;9.56;74.57;100467.38;30859809;28;97527;-64
2023/05/06 19:53:03;;;;;;;8.70;5.30;;;;;;;9.40;74.55;100474.25;30856159;28;97706;-68
2023/05/06 20:08:09;;;;;;;7.10;5.53;;;;;;;9.24;74.90;100487.41;30854594;28;97119;-65
2023/05/06 20:23:09;;;;;;;6.83;5.40;;;;;;;9.14;74.95;100477.72;30853927;28;96797;-64
2023/05/06 20:38:10;;;;;;;6.55;5.22;;;;;;;8.99;75.12;100492.53;30851696;28;97424;-67
2023/05/06 20:53:10;;;;;;;8.55;5.65;;;;;;;8.88;75.36;100500.75;30849229;28;97158;-65
2023/05/06 21:08:11;;;;;;;8.75;5.55;;;;;;;8.74;75.50;100505.59;30850155;28;97161;-63
2023/05/06 21:23:11;;;;;;;7.40;5.28;;;;;;;8.66;75.57;100502.84;30849909;28;97542;-63
2023/05/06 21:38:11;;;;;;;6.82;5.20;;;;;;;8.59;76.22;100507.09;30846512;28;112846;-66
2023/05/06 21:53:12;;;;;;;8.20;6.30;;;;;;;8.53;75.99;100521.81;30953002;28;98063;-65
2023/05/06 22:08:12;;;;;;;8.57;5.00;;;;;;;8.43;75.99;100532.47;30979845;28;96689;-69
2023/05/06 22:23:14;;;;;;;8.43;4.68;;;;;;;8.43;76.37;100535.09;30977210;28;96735;-71
2023/05/06 22:38:14;;;;;;;8.97;5.33;;;;;;;8.43;76.11;100531.59;30976661;28;97558;-67
2023/05/06 22:53:14;;;;;;;6.82;4.90;;;;;;;8.45;76.07;100537.66;30975095;28;98273;-65
2023/05/06 23:08:15;;;;;;;5.90;4.53;;;;;;;8.38;76.17;100544.47;30974184;28;97441;-66
2023/05/06 23:23:15;;;;;;;6.25;4.20;;;;;;;8.34;76.38;100554.56;30973880;28;97018;-63
2023/05/06 23:38:15;;;;;;;6.38;4.75;;;;;;;8.30;75.77;100558.50;30992301;28;104744;-69
2023/05/06 23:53:16;;;;;;;5.90;4.47;;;;;;;8.28;76.09;100565.75;30991774;28;105638;-71
